CheckWX is a tool to help pilots better visualize weather data.  It is not intended as a substitute for an official pre-flight weather briefing.

08:57:48 UTC

E38 METAR
Alpine-Casparis Municipal Airport
Alpine, Texas, USA
Current

23 mins ago

KE38 220835Z AUTO 25012KT 10SM CLR 20/M07 A2980 RMK AO2 T01991072
Observed
May-22 @ 08:35 UTC
Wind
  • 250° at 12 KTS
Visibility
10 SM
Flight Rules
VFR
Cloud Levels
  • Clear skies
Temperature
20°C / 68°F
Dewpoint
-7°C / 19°F
Humidity
16%
Altimeter
29.8" Hg
Pressure
1009.12 hPa
Previous

43 mins ago

KE38 220815Z AUTO 25005KT 10SM CLR 20/M07 A2980 RMK AO2 T01961071
Observed
May-22 @ 08:15 UTC
Wind
  • 250° at 5 KTS
Visibility
10 SM
Flight Rules
VFR
Cloud Levels
  • Clear skies
Temperature
20°C / 68°F
Dewpoint
-7°C / 19°F
Humidity
16%
Altimeter
29.8" Hg
Pressure
1009.12 hPa
Previous

1 hour ago

KE38 220755Z AUTO 00000KT 10SM CLR 20/M07 A2980 RMK AO2 T02041072
Observed
May-22 @ 07:55 UTC
Visibility
10 SM
Flight Rules
VFR
Cloud Levels
  • Clear skies
Temperature
20°C / 68°F
Dewpoint
-7°C / 19°F
Humidity
16%
Altimeter
29.8" Hg
Pressure
1009.12 hPa